Time;durP1;ratioP1;P1;durP2;ratioP2;P2;SDS_P1;SDS_P2;PMS_P1;PMS_P2;Temp;Humidity;BMP_temperature;BMP_pressure;BME280_temperature;BME280_humidity;BME280_pressure;Samples;Min_cycle;Max_cycle;Signal;HPM_P1;HPM_P2
2022/12/11 00:01:56;;;;;;;23.37;14.73;;;;;;;-2.37;100.00;95514.41;4870715;29;20981;-84
2022/12/11 00:04:25;;;;;;;25.17;15.77;;;;;;;-2.37;100.00;95514.41;4866945;29;20033;-85
2022/12/11 00:06:58;;;;;;;24.90;15.63;;;;;;;-2.40;100.00;95511.19;4877037;29;20580;-83
2022/12/11 00:09:25;;;;;;;28.53;16.37;;;;;;;-2.42;100.00;95515.59;4874650;29;20466;-85
2022/12/11 00:11:57;;;;;;;28.67;16.17;;;;;;;-2.50;100.00;95510.94;4868458;29;20528;-85
2022/12/11 00:14:23;;;;;;;27.40;15.63;;;;;;;-2.47;100.00;95515.91;4874088;29;20493;-85
2022/12/11 00:16:49;;;;;;;27.80;15.87;;;;;;;-2.47;100.00;95526.22;4879793;29;20556;-84
2022/12/11 00:19:19;;;;;;;27.97;16.30;;;;;;;-2.41;100.00;95519.84;4909118;29;20028;-84
2022/12/11 00:21:46;;;;;;;30.53;16.33;;;;;;;-2.49;100.00;95520.31;4869382;29;20032;-84
2022/12/11 00:24:14;;;;;;;27.83;15.37;;;;;;;-2.47;100.00;95526.22;4869150;29;20530;-84
2022/12/11 00:26:45;;;;;;;27.87;16.53;;;;;;;-2.50;100.00;95521.25;4875262;29;20465;-85
2022/12/11 00:29:19;;;;;;;23.77;14.77;;;;;;;-2.44;100.00;95520.88;4874892;29;20465;-84
2022/12/11 00:31:48;;;;;;;26.17;16.00;;;;;;;-2.37;100.00;95524.69;4895615;29;20474;-84
2022/12/11 00:34:23;;;;;;;29.10;16.73;;;;;;;-2.50;100.00;95520.44;4881699;29;20469;-84
2022/12/11 00:36:49;;;;;;;30.00;17.77;;;;;;;-2.45;100.00;95519.22;4875381;29;20493;-84
2022/12/11 00:39:15;;;;;;;28.50;16.63;;;;;;;-2.44;100.00;95522.63;4880762;29;20477;-84
2022/12/11 00:41:43;;;;;;;26.13;16.17;;;;;;;-2.41;100.00;95512.13;4875623;29;20036;-84
2022/12/11 00:44:09;;;;;;;25.70;15.00;;;;;;;-2.37;100.00;95516.97;4894763;29;20037;-84
2022/12/11 00:46:35;;;;;;;27.33;16.33;;;;;;;-2.48;100.00;95521.13;4878513;29;21082;-84
2022/12/11 00:49:01;;;;;;;30.47;17.47;;;;;;;-2.39;100.00;95515.41;4878184;29;20552;-85
2022/12/11 00:51:29;;;;;;;27.33;16.90;;;;;;;-2.30;100.00;95511.44;4876687;29;20607;-84
2022/12/11 00:53:58;;;;;;;28.27;16.03;;;;;;;-2.32;100.00;95513.28;4873549;29;20044;-84
2022/12/11 00:56:24;;;;;;;27.50;16.30;;;;;;;-2.31;100.00;95523.50;4875576;29;20852;-84
2022/12/11 00:58:51;;;;;;;30.30;17.97;;;;;;;-2.30;100.00;95519.16;4855485;29;20777;-85
2022/12/11 01:01:20;;;;;;;30.57;18.17;;;;;;;-2.38;100.00;95512.75;4881756;29;20489;-84
2022/12/11 01:03:46;;;;;;;27.33;15.93;;;;;;;-2.39;100.00;95515.41;4878022;29;20465;-85
2022/12/11 01:06:19;;;;;;;27.10;15.77;;;;;;;-2.42;100.00;95523.31;4878385;29;21118;-84
2022/12/11 01:08:46;;;;;;;28.00;17.13;;;;;;;-2.41;100.00;95522.44;4877172;29;20576;-84
2022/12/11 01:11:16;;;;;;;29.07;17.37;;;;;;;-2.34;100.00;95526.25;4877543;29;20642;-84
2022/12/11 01:13:42;;;;;;;26.00;15.77;;;;;;;-2.37;100.00;95524.69;4861615;29;20481;-84
2022/12/11 01:16:12;;;;;;;31.37;18.30;;;;;;;-2.43;100.00;95521.69;4883305;29;20488;-85
2022/12/11 01:18:44;;;;;;;30.73;17.63;;;;;;;-2.51;100.00;95523.94;4869801;29;20861;-84
2022/12/11 01:21:12;;;;;;;28.10;16.70;;;;;;;-2.46;100.00;95533.00;4859804;29;20513;-85
2022/12/11 01:23:58;;;;;;;30.20;16.37;;;;;;;-2.41;100.00;95533.53;4889908;29;21042;-85
2022/12/11 01:26:26;;;;;;;27.70;16.63;;;;;;;-2.49;100.00;95535.75;4892932;29;20453;-85
2022/12/11 01:28:56;;;;;;;29.43;17.07;;;;;;;-2.47;100.00;95538.25;4887552;29;20545;-84
2022/12/11 01:31:33;;;;;;;30.53;17.77;;;;;;;-2.39;100.00;95539.41;4874246;29;20510;-84
2022/12/11 01:34:06;;;;;;;26.73;16.10;;;;;;;-2.45;100.00;95546.69;4884938;29;20599;-85
2022/12/11 01:36:41;;;;;;;26.53;17.07;;;;;;;-2.34;100.00;95546.84;4865465;29;20495;-84
2022/12/11 01:39:08;;;;;;;28.57;16.43;;;;;;;-2.42;100.00;95549.06;4868749;29;20470;-84
2022/12/11 01:41:37;;;;;;;31.40;17.30;;;;;;;-2.53;100.00;95546.38;4871485;29;20846;-84
2022/12/11 01:44:26;;;;;;;26.23;15.67;;;;;;;-2.49;100.00;95552.97;4904424;29;20484;-84
2022/12/11 01:46:53;;;;;;;26.27;15.40;;;;;;;-2.46;100.00;95548.44;4864415;29;20817;-84
2022/12/11 01:49:22;;;;;;;26.20;16.40;;;;;;;-2.41;100.00;95541.28;4878644;29;20532;-84
2022/12/11 01:51:59;;;;;;;27.67;15.13;;;;;;;-2.44;100.00;95538.06;4882895;29;20472;-84
2022/12/11 01:54:27;;;;;;;24.17;15.30;;;;;;;-2.50;100.00;95541.03;4880397;29;21027;-85
2022/12/11 01:56:57;;;;;;;26.03;14.47;;;;;;;-2.52;100.00;95538.53;4868650;29;20473;-85
2022/12/11 01:59:28;;;;;;;26.07;14.83;;;;;;;-2.49;100.00;95540.09;4878226;29;20461;-85
2022/12/11 02:02:11;;;;;;;23.67;13.80;;;;;;;-2.51;100.00;95523.94;4867723;29;20478;-84
2022/12/11 02:04:40;;;;;;;22.30;13.27;;;;;;;-2.39;100.00;95533.44;4872610;29;20468;-84
2022/12/11 02:07:09;;;;;;;26.87;15.37;;;;;;;-2.41;100.00;95535.31;4884631;29;20123;-85
2022/12/11 02:09:39;;;;;;;27.87;16.17;;;;;;;-2.40;100.00;95536.94;4871366;29;20874;-85
2022/12/11 02:12:30;;;;;;;27.63;15.97;;;;;;;-2.46;100.00;95534.75;4884160;29;20553;-84
2022/12/11 02:15:36;;;;;;;24.23;14.70;;;;;;;-2.46;100.00;95532.19;4873980;29;20485;-85
2022/12/11 02:18:30;;;;;;;24.33;14.03;;;;;;;-2.41;100.00;95530.16;4902586;29;20493;-85
2022/12/11 02:21:37;;;;;;;25.17;15.13;;;;;;;-2.43;100.00;95544.84;4866179;29;20477;-85
2022/12/11 02:24:27;;;;;;;24.80;14.00;;;;;;;-2.47;100.00;95540.84;4841757;29;20474;-84
2022/12/11 02:27:14;;;;;;;24.53;14.47;;;;;;;-2.53;100.00;95536.88;4823576;29;20459;-84
2022/12/11 02:29:46;;;;;;;23.73;13.33;;;;;;;-2.53;100.00;95534.31;4861540;29;20464;-85
2022/12/11 02:32:40;;;;;;;21.07;12.70;;;;;;;-2.50;100.00;95536.69;4879970;29;21032;-84
2022/12/11 02:35:27;;;;;;;51.03;24.40;;;;;;;-2.48;100.00;95528.88;4892903;29;20531;-85
2022/12/11 02:38:17;;;;;;;28.95;16.10;;;;;;;-2.51;100.00;95539.38;4859670;29;20516;-85
2022/12/11 02:41:01;;;;;;;20.13;11.77;;;;;;;-2.63;100.00;95536.63;4863004;29;20100;-84
2022/12/11 02:43:30;;;;;;;25.20;13.63;;;;;;;-2.62;100.00;95533.16;4865802;29;20557;-84
2022/12/11 02:46:03;;;;;;;18.27;11.30;;;;;;;-2.59;100.00;95537.28;4849160;29;20446;-85
2022/12/11 02:48:31;;;;;;;22.27;13.13;;;;;;;-2.61;100.00;95539.94;4865273;29;20473;-84
2022/12/11 02:51:03;;;;;;;20.87;12.30;;;;;;;-2.48;100.00;95540.00;4859643;29;20537;-85
2022/12/11 02:53:31;;;;;;;22.80;12.93;;;;;;;-2.59;100.00;95537.28;4849875;29;20546;-84
2022/12/11 02:56:08;;;;;;;22.00;13.83;;;;;;;-2.58;100.00;95545.81;4861155;29;21108;-85
2022/12/11 02:58:45;;;;;;;23.07;13.20;;;;;;;-2.54;100.00;95535.25;4850291;29;20466;-85
2022/12/11 03:01:15;;;;;;;24.30;12.33;;;;;;;-2.64;100.00;95547.03;4850328;29;20568;-84
2022/12/11 03:03:41;;;;;;;19.90;11.43;;;;;;;-2.58;100.00;95535.50;4868876;29;20466;-84
2022/12/11 03:06:15;;;;;;;21.10;12.57;;;;;;;-2.65;100.00;95541.06;4886661;29;20525;-85
2022/12/11 03:08:42;;;;;;;19.30;11.70;;;;;;;-2.63;100.00;95538.38;4863673;29;20470;-85
2022/12/11 03:11:27;;;;;;;19.20;12.00;;;;;;;-2.66;100.00;95544.53;4875548;29;20557;-84
2022/12/11 03:13:53;;;;;;;20.87;11.33;;;;;;;-2.71;100.00;95544.03;4862853;29;20594;-85
2022/12/11 03:16:21;;;;;;;17.83;10.50;;;;;;;-2.62;100.00;95532.31;4866138;29;20494;-85
2022/12/11 03:19:06;;;;;;;20.07;11.33;;;;;;;-2.65;100.00;95533.34;4866314;29;21279;-85
2022/12/11 03:21:59;;;;;;;18.17;10.23;;;;;;;-2.66;100.00;95531.69;4853030;29;20561;-85
2022/12/11 03:24:59;;;;;;;18.47;11.10;;;;;;;-2.74;100.00;95526.19;4849991;29;20465;-85
2022/12/11 03:27:52;;;;;;;16.53;9.73;;;;;;;-2.70;100.00;95525.06;4866504;29;20489;-85
2022/12/11 03:30:28;;;;;;;17.93;10.50;;;;;;;-2.83;100.00;95525.94;4858454;29;20466;-85
2022/12/11 03:33:00;;;;;;;15.75;8.77;;;;;;;-2.81;100.00;95529.25;4852367;29;20465;-85
2022/12/11 03:35:34;;;;;;;17.03;10.40;;;;;;;-2.84;100.00;95532.84;4859226;29;20033;-85
2022/12/11 03:38:07;;;;;;;17.40;10.03;;;;;;;-2.71;100.00;95532.91;4865300;29;21013;-85
2022/12/11 03:40:37;;;;;;;16.27;9.80;;;;;;;-2.80;100.00;95533.47;4870777;29;21300;-85
2022/12/11 03:43:11;;;;;;;15.93;9.57;;;;;;;-2.80;100.00;95534.28;4850573;29;20478;-84
2022/12/11 03:45:53;;;;;;;20.53;11.60;;;;;;;-2.81;100.00;95531.84;4862259;29;20481;-85
2022/12/11 03:48:26;;;;;;;16.47;10.20;;;;;;;-2.82;100.00;95530.97;4844588;29;21020;-85
2022/12/11 03:51:08;;;;;;;14.52;10.35;;;;;;;-2.88;100.00;95528.81;4864219;29;20480;-85
2022/12/11 03:53:35;;;;;;;16.47;9.63;;;;;;;-2.85;100.00;95518.31;4853005;29;20783;-84
2022/12/11 03:56:05;;;;;;;17.33;9.60;;;;;;;-2.89;100.00;95515.09;4883626;29;21261;-85
2022/12/11 03:58:31;;;;;;;16.73;9.30;;;;;;;-2.88;100.00;95514.19;4857082;29;20582;-85
2022/12/11 04:00:57;;;;;;;17.07;9.47;;;;;;;-2.87;100.00;95520.97;4872210;29;20562;-85
2022/12/11 04:03:31;;;;;;;18.50;10.30;;;;;;;-2.95;100.00;95519.78;4861756;29;20041;-85
2022/12/11 04:05:56;;;;;;;19.17;10.33;;;;;;;-2.99;100.00;95528.63;4845358;29;20049;-85
2022/12/11 04:08:22;;;;;;;21.77;10.60;;;;;;;-2.98;100.00;95528.56;4857577;29;20470;-84
2022/12/11 04:13:35;;;;;;;19.37;11.27;;;;;;;-3.03;100.00;95517.69;4863978;29;20030;-85
2022/12/11 04:16:01;;;;;;;22.27;12.17;;;;;;;-3.12;100.00;95519.09;4841211;29;20474;-85
2022/12/11 04:24:15;;;;;;;19.80;11.17;;;;;;;-3.23;100.00;95523.25;4861180;29;20475;-85
2022/12/11 04:26:45;;;;;;;20.57;11.00;;;;;;;-3.25;100.00;95515.63;4864206;29;20434;-85
2022/12/11 04:29:17;;;;;;;19.90;12.20;;;;;;;-3.26;100.00;95519.09;4857317;29;20472;-85
2022/12/11 04:31:44;;;;;;;18.70;10.60;;;;;;;-3.25;100.00;95522.50;4864010;29;20828;-83
2022/12/11 04:34:11;;;;;;;18.40;10.97;;;;;;;-3.31;100.00;95523.72;4867530;29;20060;-84
2022/12/11 04:36:43;;;;;;;17.67;11.27;;;;;;;-3.33;100.00;95525.53;4839252;29;20566;-85
2022/12/11 04:39:09;;;;;;;18.07;11.10;;;;;;;-3.25;100.00;95525.06;4856371;29;20470;-84
2022/12/11 04:41:40;;;;;;;17.03;9.87;;;;;;;-3.18;100.00;95524.63;4863696;29;20492;-85
2022/12/11 04:44:06;;;;;;;19.57;10.63;;;;;;;-3.16;100.00;95527.09;4851378;29;20096;-85
2022/12/11 04:46:32;;;;;;;18.60;10.77;;;;;;;-3.25;100.00;95518.19;4847170;29;20572;-85
2022/12/11 04:49:06;;;;;;;17.90;10.77;;;;;;;-3.14;100.00;95522.69;4845833;29;20615;-85
2022/12/11 04:51:33;;;;;;;18.60;10.13;;;;;;;-3.19;100.00;95528.09;4866130;29;20082;-83
2022/12/11 04:53:58;;;;;;;18.57;11.43;;;;;;;-3.20;100.00;95525.63;4872439;29;20473;-82
2022/12/11 04:56:24;;;;;;;15.37;9.97;;;;;;;-3.06;100.00;95519.63;4854420;29;21021;-85
2022/12/11 04:58:51;;;;;;;14.33;8.87;;;;;;;-3.09;100.00;95518.06;4868041;29;20054;-85
2022/12/11 05:01:21;;;;;;;16.20;9.43;;;;;;;-3.16;100.00;95517.63;4879977;29;20041;-84
2022/12/11 05:03:48;;;;;;;17.03;9.57;;;;;;;-3.15;100.00;95519.28;4880339;29;20466;-84
2022/12/11 05:06:14;;;;;;;15.97;9.93;;;;;;;-3.14;100.00;95512.41;4891774;29;20461;-85
2022/12/11 05:08:41;;;;;;;17.07;10.83;;;;;;;-3.08;100.00;95524.88;4868321;29;20470;-85
2022/12/11 05:11:14;;;;;;;15.80;10.07;;;;;;;-3.09;100.00;95526.59;4843582;29;20502;-86
2022/12/11 05:13:41;;;;;;;11.25;6.93;;;;;;;-3.08;100.00;95528.28;4849381;29;20772;-85
2022/12/11 05:16:12;;;;;;;17.73;10.53;;;;;;;-3.05;100.00;95518.72;4858981;29;20121;-85
2022/12/11 05:18:40;;;;;;;20.17;10.65;;;;;;;-2.97;100.00;95512.19;4880854;29;20492;-84
2022/12/11 05:21:11;;;;;;;15.03;9.33;;;;;;;-2.99;100.00;95508.03;4849087;29;20492;-85
2022/12/11 05:23:38;;;;;;;18.70;10.40;;;;;;;-2.98;100.00;95514.88;4855967;29;20041;-84
2022/12/11 05:26:09;;;;;;;17.53;10.10;;;;;;;-3.04;100.00;95515.25;4835440;29;20515;-85
2022/12/11 05:28:38;;;;;;;16.15;10.18;;;;;;;-3.00;100.00;95516.69;4864901;29;20473;-85
2022/12/11 05:31:17;;;;;;;18.23;9.77;;;;;;;-3.03;100.00;95517.69;4849419;29;20046;-85
2022/12/11 05:33:44;;;;;;;14.77;10.03;;;;;;;-3.04;100.00;95515.25;4852922;29;20885;-84
2022/12/11 05:36:27;;;;;;;19.63;11.87;;;;;;;-2.94;100.00;95514.56;4852509;29;21028;-84
2022/12/11 05:38:54;;;;;;;20.38;12.80;;;;;;;-2.93;100.00;95511.06;4849898;29;20493;-85
2022/12/11 05:41:22;;;;;;;15.73;10.27;;;;;;;-2.97;100.00;95513.94;4851146;29;20120;-85
2022/12/11 05:43:48;;;;;;;20.83;10.67;;;;;;;-2.96;100.00;95513.00;4841817;29;21172;-86
2022/12/11 05:46:23;;;;;;;19.17;10.23;;;;;;;-2.92;100.00;95511.88;4846552;29;20554;-85
2022/12/11 05:48:52;;;;;;;16.97;10.50;;;;;;;-2.96;100.00;95506.09;4843313;29;20490;-85
2022/12/11 05:51:22;;;;;;;16.03;8.43;;;;;;;-2.90;100.00;95497.19;4868223;29;20524;-84
2022/12/11 05:53:50;;;;;;;15.90;10.07;;;;;;;-2.95;100.00;95499.22;4850542;29;20458;-85
2022/12/11 05:56:19;;;;;;;17.17;10.60;;;;;;;-2.98;100.00;95499.44;4850411;29;20478;-85
2022/12/11 05:58:48;;;;;;;15.60;9.67;;;;;;;-2.96;100.00;95502.72;4847544;29;20486;-85
2022/12/11 06:01:20;;;;;;;17.37;10.17;;;;;;;-2.98;100.00;95496.84;4848620;29;20485;-84
2022/12/11 06:03:46;;;;;;;17.67;10.53;;;;;;;-2.94;100.00;95493.16;4857295;29;20514;-85
2022/12/11 06:06:14;;;;;;;17.93;10.90;;;;;;;-3.05;100.00;95493.00;4851440;29;20498;-84
2022/12/11 06:08:41;;;;;;;17.40;10.40;;;;;;;-3.13;100.00;95494.28;4853342;29;20545;-85
2022/12/11 06:11:07;;;;;;;18.73;10.83;;;;;;;-3.12;100.00;95493.41;4848359;29;20492;-84
2022/12/11 06:13:49;;;;;;;16.27;9.87;;;;;;;-3.02;100.00;95501.34;4864390;29;20477;-85
2022/12/11 06:16:17;;;;;;;17.80;11.13;;;;;;;-3.02;100.00;95488.47;4853642;29;21100;-85
2022/12/11 06:18:44;;;;;;;17.07;10.60;;;;;;;-3.02;100.00;95493.63;4864779;29;20542;-85
2022/12/11 06:21:20;;;;;;;18.27;11.07;;;;;;;-3.05;100.00;95482.69;4880106;29;20458;-85
2022/12/11 06:23:53;;;;;;;18.20;9.90;;;;;;;-3.03;100.00;95481.69;4855380;29;20498;-85
2022/12/11 06:26:22;;;;;;;;;;;;;;;-3.12;100.00;95477.97;4855343;29;20488;-85
2022/12/11 06:28:50;;;;;;;19.13;9.77;;;;;;;-3.12;100.00;95477.09;4873316;29;19926;-85
2022/12/11 06:31:21;;;;;;;19.50;11.63;;;;;;;-3.10;100.00;95483.00;4872132;29;20469;-84
2022/12/11 06:33:49;;;;;;;19.63;10.60;;;;;;;-3.16;100.00;95489.34;4850696;29;20045;-85
2022/12/11 06:36:20;;;;;;;18.90;11.07;;;;;;;-3.16;100.00;95480.78;4869612;29;20469;-85
2022/12/11 06:39:12;;;;;;;18.50;10.57;;;;;;;-3.15;100.00;95496.16;4865773;29;20477;-85
2022/12/11 06:41:39;;;;;;;18.27;11.40;;;;;;;-3.13;100.00;95491.72;4860779;29;20458;-85
2022/12/11 06:44:05;;;;;;;23.93;12.23;;;;;;;-3.18;100.00;95501.47;4875201;29;21290;-84
2022/12/11 06:46:34;;;;;;;18.97;11.03;;;;;;;-3.02;100.00;95495.38;4871532;29;20455;-85
2022/12/11 06:49:02;;;;;;;17.90;10.97;;;;;;;-3.13;100.00;95488.31;4850646;29;20048;-85
2022/12/11 06:51:30;;;;;;;19.43;12.30;;;;;;;-3.09;100.00;95488.03;4843148;29;20474;-85
2022/12/11 06:54:01;;;;;;;31.37;18.63;;;;;;;-3.11;100.00;95487.31;4848091;29;20473;-85
2022/12/11 06:56:39;;;;;;;19.30;11.33;;;;;;;-3.06;100.00;95492.16;4862009;29;20519;-85
2022/12/11 06:59:06;;;;;;;19.20;11.90;;;;;;;-3.15;100.00;95493.56;4880741;29;20465;-85
2022/12/11 07:01:39;;;;;;;19.30;12.27;;;;;;;-3.08;100.00;95491.44;4851598;29;20457;-85
2022/12/11 07:04:05;;;;;;;19.87;12.17;;;;;;;-3.04;100.00;95494.66;4854369;29;20457;-84
2022/12/11 07:06:31;;;;;;;33.37;18.93;;;;;;;-2.98;100.00;95494.28;4873745;29;21067;-84
2022/12/11 07:09:02;;;;;;;38.97;21.53;;;;;;;-3.06;100.00;95494.75;4868642;29;20028;-85
2022/12/11 07:11:28;;;;;;;29.23;18.87;;;;;;;-3.02;100.00;95498.75;4867694;29;20088;-85
2022/12/11 07:13:59;;;;;;;26.13;17.50;;;;;;;-2.99;100.00;95502.91;4844434;29;21042;-85
2022/12/11 07:16:26;;;;;;;22.73;14.27;;;;;;;-3.02;100.00;95503.09;4866734;29;20030;-84
2022/12/11 07:18:51;;;;;;;23.87;14.60;;;;;;;-3.02;100.00;95498.75;4846126;29;21016;-84
2022/12/11 07:21:26;;;;;;;21.43;13.40;;;;;;;-2.91;100.00;95505.84;4865307;29;20530;-85
2022/12/11 07:23:52;;;;;;;27.47;13.77;;;;;;;-2.89;100.00;95503.97;4844029;29;20514;-85
2022/12/11 07:26:26;;;;;;;21.53;12.77;;;;;;;-2.92;100.00;95505.03;4849180;29;20458;-85
2022/12/11 07:28:57;;;;;;;21.47;13.57;;;;;;;-3.00;100.00;95502.09;4854377;29;20115;-85
2022/12/11 07:31:24;;;;;;;22.90;13.50;;;;;;;-2.94;100.00;95500.88;4842817;29;20489;-85
2022/12/11 07:33:57;;;;;;;20.50;12.10;;;;;;;-2.88;100.00;95503.09;4879470;29;20497;-85
2022/12/11 07:36:24;;;;;;;21.92;12.98;;;;;;;-2.92;100.00;95504.16;4887876;29;20473;-85
2022/12/11 07:38:59;;;;;;;24.97;14.63;;;;;;;-2.89;100.00;95506.56;4873723;29;20061;-85
2022/12/11 07:41:27;;;;;;;22.70;13.70;;;;;;;-2.88;100.00;95509.06;4850348;29;21130;-85
2022/12/11 07:43:58;;;;;;;20.07;11.53;;;;;;;-2.87;100.00;95502.97;4863759;29;20530;-84
2022/12/11 07:46:28;;;;;;;25.50;14.47;;;;;;;-2.74;100.00;95508.19;4867917;29;20498;-84
2022/12/11 07:48:54;;;;;;;35.40;19.07;;;;;;;-2.75;100.00;95506.53;4851856;29;20466;-83
2022/12/11 07:51:26;;;;;;;36.70;20.63;;;;;;;-2.70;100.00;95511.38;4871295;29;20469;-84
2022/12/11 07:53:58;;;;;;;29.77;17.73;;;;;;;-2.74;100.00;95503.03;4869169;29;20492;-84
2022/12/11 07:56:25;;;;;;;25.87;15.30;;;;;;;-2.73;100.00;95499.53;4860506;29;20491;-84
2022/12/11 07:58:51;;;;;;;25.30;14.77;;;;;;;-2.61;100.00;95495.38;4853287;29;20462;-84
2022/12/11 08:01:23;;;;;;;21.90;13.63;;;;;;;-2.54;100.00;95500.97;4855367;29;20467;-83
2022/12/11 08:03:52;;;;;;;18.77;11.47;;;;;;;-2.51;100.00;95500.75;4852895;29;20057;-84
2022/12/11 08:06:26;;;;;;;20.87;12.43;;;;;;;-2.67;100.00;95493.19;4863292;29;20466;-84
2022/12/11 08:08:57;;;;;;;21.63;11.60;;;;;;;-2.66;100.00;95494.81;4879404;29;20452;-84
2022/12/11 08:11:24;;;;;;;20.60;10.83;;;;;;;-2.62;100.00;95506.56;4839321;29;20837;-83
2022/12/11 08:14:16;;;;;;;19.27;11.30;;;;;;;-2.58;100.00;95490.03;4865083;29;20530;-84
2022/12/11 08:16:42;;;;;;;20.50;11.47;;;;;;;-2.61;100.00;95492.81;4865439;29;20478;-85
2022/12/11 08:19:10;;;;;;;21.07;11.10;;;;;;;-2.63;100.00;95492.06;4855250;29;20461;-84
2022/12/11 08:21:43;;;;;;;19.10;11.20;;;;;;;-2.62;100.00;95493.69;4864830;29;20478;-84
2022/12/11 08:24:10;;;;;;;22.83;12.68;;;;;;;-2.55;100.00;95496.72;4850240;29;20505;-84
2022/12/11 08:26:36;;;;;;;25.43;13.90;;;;;;;-2.43;100.00;95506.25;4859532;29;20025;-84
2022/12/11 08:29:02;;;;;;;31.93;17.67;;;;;;;-2.54;100.00;95509.50;4860396;29;20461;-84
2022/12/11 08:31:28;;;;;;;27.33;16.33;;;;;;;-2.64;100.00;95513.59;4847870;29;20053;-84
2022/12/11 08:33:57;;;;;;;32.17;17.80;;;;;;;-2.74;100.00;95517.66;4849671;29;21054;-84
2022/12/11 08:36:24;;;;;;;29.73;15.53;;;;;;;-2.76;100.00;95520.31;4841802;29;20481;-84
2022/12/11 08:38:51;;;;;;;36.87;18.77;;;;;;;-2.89;100.00;95514.28;4872694;29;20493;-83
2022/12/11 08:41:28;;;;;;;34.23;18.47;;;;;;;-2.74;100.00;95518.47;4854745;29;20466;-84
2022/12/11 08:43:56;;;;;;;26.37;15.23;;;;;;;-2.57;100.00;95511.44;4847580;29;20671;-84
2022/12/11 08:46:25;;;;;;;28.67;15.47;;;;;;;-2.59;100.00;95515.84;4858506;29;20485;-84
2022/12/11 08:48:51;;;;;;;26.57;15.50;;;;;;;-2.41;100.00;95506.97;4845963;29;20457;-84
2022/12/11 08:51:19;;;;;;;22.40;14.30;;;;;;;-2.43;100.00;95506.25;4872230;29;21075;-83
2022/12/11 08:53:54;;;;;;;25.67;15.73;;;;;;;-2.42;100.00;95500.16;4854620;29;20485;-84
2022/12/11 08:56:33;;;;;;;22.33;11.77;;;;;;;-2.54;100.00;95500.97;4844231;29;20487;-84
2022/12/11 08:59:00;;;;;;;20.33;11.67;;;;;;;-2.52;100.00;95506.81;4863671;29;20579;-84
2022/12/11 09:01:26;;;;;;;21.90;12.53;;;;;;;-2.35;100.00;95500.59;4850392;29;20541;-84
2022/12/11 09:03:53;;;;;;;22.53;12.70;;;;;;;-2.43;100.00;95506.25;4874203;29;20622;-84
2022/12/11 09:06:23;;;;;;;22.30;13.17;;;;;;;-2.46;100.00;95507.25;4867041;29;20472;-84
2022/12/11 09:08:50;;;;;;;19.00;10.97;;;;;;;-2.32;100.00;95514.09;4853687;29;20466;-84
2022/12/11 09:11:20;;;;;;;18.93;10.10;;;;;;;-2.31;100.00;95505.47;4857036;29;20458;-84
2022/12/11 09:13:46;;;;;;;41.20;22.57;;;;;;;-2.32;100.00;95506.38;4858537;29;20450;-85
2022/12/11 09:16:16;;;;;;;32.20;18.27;;;;;;;-2.40;100.00;95508.63;4842588;29;20483;-83
2022/12/11 09:18:45;;;;;;;25.27;13.40;;;;;;;-2.37;100.00;95500.69;4852174;29;20120;-84
2022/12/11 09:21:13;;;;;;;19.73;11.40;;;;;;;-2.39;100.00;95499.97;4851715;29;20832;-84
2022/12/11 09:23:40;;;;;;;20.50;12.10;;;;;;;-2.26;100.00;95500.00;4847605;29;20469;-84
2022/12/11 09:26:09;;;;;;;18.63;10.60;;;;;;;-2.32;100.00;95503.78;4836631;29;20475;-84
2022/12/11 09:28:36;;;;;;;19.17;10.73;;;;;;;-2.30;100.00;95499.38;4860364;29;20477;-84
2022/12/11 09:31:13;;;;;;;20.73;11.20;;;;;;;-2.27;100.00;95495.78;4859748;29;20482;-84
2022/12/11 09:33:41;;;;;;;24.50;12.77;;;;;;;-2.27;100.00;95495.78;4865545;29;20481;-83
2022/12/11 09:36:08;;;;;;;27.10;13.57;;;;;;;-2.36;100.00;95489.47;4882055;29;20494;-83
2022/12/11 09:38:37;;;;;;;19.63;10.47;;;;;;;-2.40;100.00;95493.16;4859481;29;20533;-84
2022/12/11 09:41:27;;;;;;;21.37;11.97;;;;;;;-2.38;100.00;95492.16;4860964;29;20458;-84
2022/12/11 09:44:36;;;;;;;20.07;11.50;;;;;;;-2.39;100.00;95485.34;4856122;29;20539;-84
2022/12/11 09:47:15;;;;;;;22.90;12.37;;;;;;;-2.25;100.00;95491.34;4878377;29;20481;-84
2022/12/11 09:49:55;;;;;;;20.67;11.87;;;;;;;-2.18;100.00;95495.16;4859816;29;20539;-84
2022/12/11 09:52:33;;;;;;;19.27;11.20;;;;;;;-2.12;100.00;95484.47;4859578;29;20478;-84
2022/12/11 09:55:13;;;;;;;22.67;12.27;;;;;;;-2.09;100.00;95483.44;4877193;29;20546;-85
2022/12/11 09:57:45;;;;;;;22.27;11.97;;;;;;;-1.98;100.00;95484.41;4872746;29;20465;-84
2022/12/11 10:00:46;;;;;;;26.57;14.73;;;;;;;-1.90;100.00;95474.41;4900180;29;20516;-83
2022/12/11 10:03:51;;;;;;;21.93;13.00;;;;;;;-1.90;100.00;95473.59;4884309;29;20502;-84
2022/12/11 10:06:24;;;;;;;21.80;13.37;;;;;;;-1.94;100.00;95477.31;4883678;29;21035;-84
2022/12/11 10:09:07;;;;;;;31.90;16.13;;;;;;;-2.01;100.00;95476.03;4867424;29;21044;-86
2022/12/11 10:11:45;;;;;;;25.67;14.63;;;;;;;-2.02;100.00;95474.38;4878369;29;20484;-86
2022/12/11 10:14:55;;;;;;;23.50;15.00;;;;;;;-2.09;100.00;95468.00;4866361;29;20511;-85
2022/12/11 10:17:30;;;;;;;26.17;15.70;;;;;;;-1.91;100.00;95471.94;4858901;29;21111;-84
2022/12/11 10:20:06;;;;;;;30.63;16.07;;;;;;;-1.93;100.00;95463.47;4863190;29;20821;-85
2022/12/11 10:22:36;;;;;;;25.67;15.63;;;;;;;-2.04;100.00;95465.97;4869112;29;20477;-86
2022/12/11 10:25:11;;;;;;;27.93;16.50;;;;;;;-2.08;100.00;95469.63;4841326;29;20467;-88
2022/12/11 10:27:38;;;;;;;27.07;15.47;;;;;;;-2.04;100.00;95466.78;4863006;29;20468;-86
2022/12/11 10:30:34;;;;;;;25.57;15.30;;;;;;;-2.11;100.00;95455.22;4857425;29;20492;-86
2022/12/11 10:33:04;;;;;;;25.93;15.03;;;;;;;-2.02;100.00;95462.31;4837845;29;20469;-85
2022/12/11 10:35:52;;;;;;;28.87;16.73;;;;;;;-2.05;100.00;95459.94;4886288;29;20493;-83
2022/12/11 10:38:30;;;;;;;28.10;15.90;;;;;;;-1.99;100.00;95456.16;4860198;29;20505;-87
2022/12/11 10:41:09;;;;;;;32.77;17.27;;;;;;;-1.97;100.00;95451.75;4873667;29;20496;-87
2022/12/11 10:43:52;;;;;;;26.97;15.37;;;;;;;-2.22;100.00;95448.19;4866088;29;20838;-87
2022/12/11 10:46:31;;;;;;;28.08;13.63;;;;;;;-2.22;100.00;95447.38;4854028;29;21115;-86
2022/12/11 10:49:00;;;;;;;24.90;15.00;;;;;;;-2.26;100.00;95446.75;4850125;29;20037;-86
2022/12/11 10:51:33;;;;;;;26.40;16.53;;;;;;;-2.31;100.00;95445.38;4845215;29;21043;-83
2022/12/11 10:54:47;;;;;;;24.33;14.38;;;;;;;-2.29;100.00;95452.09;4871533;29;20833;-83
2022/12/11 10:57:14;;;;;;;22.35;11.85;;;;;;;-2.23;100.00;95449.13;4885748;29;20053;-84
2022/12/11 10:59:45;;;;;;;26.13;14.43;;;;;;;-2.10;100.00;95441.41;4867923;29;20042;-84
2022/12/11 11:02:23;;;;;;;24.33;14.67;;;;;;;-2.14;100.00;95438.22;4861497;29;20506;-83
2022/12/11 11:04:57;;;;;;;22.23;13.43;;;;;;;-2.21;100.00;95439.56;4865508;29;20533;-84
2022/12/11 11:07:29;;;;;;;24.33;14.40;;;;;;;-2.30;100.00;95429.03;4852815;29;20490;-84
2022/12/11 11:10:10;;;;;;;24.30;14.43;;;;;;;-2.23;100.00;95431.09;4870349;29;20450;-83
2022/12/11 11:12:48;;;;;;;26.93;14.73;;;;;;;-2.17;100.00;95428.13;4868834;29;20473;-82
2022/12/11 11:15:29;;;;;;;25.83;13.90;;;;;;;-2.17;100.00;95422.97;4843822;29;20478;-83
2022/12/11 11:18:25;;;;;;;24.47;14.97;;;;;;;-2.17;100.00;95420.38;4858634;29;20484;-86
2022/12/11 11:20:51;;;;;;;23.23;12.30;;;;;;;-2.30;100.00;95418.72;4867269;29;20552;-84
2022/12/11 11:23:20;;;;;;;21.17;12.73;;;;;;;-2.29;100.00;95416.03;4851849;29;20803;-84
2022/12/11 11:25:56;;;;;;;24.30;13.97;;;;;;;-2.19;100.00;95417.06;4860046;29;20458;-85
2022/12/11 11:28:39;;;;;;;28.77;14.47;;;;;;;-2.23;100.00;95413.06;4844742;29;20522;-84
2022/12/11 11:31:13;;;;;;;17.65;10.52;;;;;;;-2.18;100.00;95407.59;4853509;29;20592;-85
2022/12/11 11:34:09;;;;;;;26.00;14.70;;;;;;;-2.08;100.00;95405.22;4874678;29;20068;-86
2022/12/11 11:36:39;;;;;;;21.03;13.07;;;;;;;-2.18;100.00;95398.16;4877015;29;20477;-85
2022/12/11 11:39:24;;;;;;;23.37;12.57;;;;;;;-2.07;100.00;95391.44;4849810;29;20466;-84
2022/12/11 11:42:20;;;;;;;18.40;10.77;;;;;;;-1.95;100.00;95393.19;4867061;29;21048;-85
2022/12/11 11:45:12;;;;;;;22.03;12.67;;;;;;;-2.07;100.00;95388.88;4882243;29;20457;-85